Markham, Ontario

2:14 PM EDT on March 28, 2015 (GMT -0400)
Toronto-Buttonville Municipal | | Change Station
CLOSE
Current Station
Airport
Location: Markham,
Elevation: 650 ft
Nearby Weather Stations

Elev 650 ft 43.87 °N, 79.37 °W | Updated 14 minutes ago

Clear
Clear
25 °F
Feels Like 14 °F
N
12
Wind Variable Wind from North
Gusts 24 mph

Today is forecast to be nearly the same temperature as yesterday.

Today
High -- | Low -- °F
--% Chance of Precip.
Yesterday
High -- | Low -- °F
Precip. -- in
7:06 AM 7:39 PM
Waxing Gibbous, 64% visible
Pressure 30.19 in
Visibility 15.0 miles
Clouds Clear
Windchill 14 °F
Dew Point 0 °F
Humidity 34%
Rainfall 0.00 in
Snow Depth Not available.
UV 7 out of 12
Pollen Not available.
Air Quality Not available.
Flu Activity Not available.
METAR CYKZ 281800Z 36010G21KT 15SM SKC M04/M18 A3016 RMK SLP224

More Conditions Fewer Conditions

Pressure 30.19 in
Visibility 15.0 miles
Clouds Clear
Windchill 14 °F
Dew Point 0 °F
Humidity 34%
Rainfall 0.00 in
Snow Depth Not available.
UV 7 out of 12
Pollen Not available.
Air Quality Not available.
Flu Activity Not available.
METAR CYKZ 281800Z 36010G21KT 15SM SKC M04/M18 A3016 RMK SLP224

More Conditions Fewer Conditions

10-Day Weather Forecast

Almanac

Astronomy

Mar. 28, 2015 Rise Set
Actual Time
Civil Twilight
Nautical Twilight
Astronomical Twilight
Moon
Length of Visible Light
Length of Day
Tomorrow will be .
, % of the Moon is Illuminated

Today's Extremes

Country Highs Country Lows

Community

WunderPhotos

Upload Photos

1,809,050 photos uploaded!

WunderBlogs® & News

Nearby

Air Quality

  Air Quality AQ Index Pollutant
Not available.

Snow Depth

Station Depth Elevation

Earthquake Activity

City Distance Mag. Time & Date
Minimum magnitude displayed is 2.5.

Coastal Water Temperatures

Place Temperature

Stations

Nearby Weather Stations

Station Location Temp. Windchill Dew Point Humidity Wind Precip. Elev Updated Type